This is the latest recevied weather packets stored in our database for station/object EUGENE. If no packets are shown the sender has not sent any weather packets the latest 1 day(s).
| Time | Temp. | Humidity | Pressure | Rain* | Wind** | Luminosity | Snow |
|---|---|---|---|---|---|---|---|
| 1836274120 | 18.89° C | 71% | 1012.8 hPa | 0 mm | 0 m/s | - | - |
| 1836273971 | 18.89° C | 69% | 1012.5 hPa | 0 mm | 0.89 m/s, 246° | - | - |
| 1778046132 | 12.22° C | 91% | 1017 hPa | 0 mm | 0 m/s | - | - |
| 1778045232 | 12.22° C | 91% | 1016.7 hPa | 0 mm | 0.45 m/s, 304° | - | - |
| 1778044332 | 12.78° C | 90% | 1016.6 hPa | 0 mm | 0 m/s | - | - |
| 1778043432 | 12.78° C | 90% | 1016.4 hPa | 0 mm | 0 m/s | - | - |
| 1778042532 | 13.33° C | 89% | 1016.3 hPa | 0 mm | 0 m/s | - | - |
| 1778041632 | 13.33° C | 87% | 1016.1 hPa | 0 mm | 0 m/s | - | - |
| 1778040731 | 13.89° C | 86% | 1016 hPa | 0 mm | 0 m/s | - | - |
| 1778039832 | 14.44° C | 85% | 1015.8 hPa | 0 mm | 0.45 m/s, 317° | - | - |
| 1778038932 | 15° C | 83% | 1015.6 hPa | 0 mm | 0 m/s | - | - |
| 1778038032 | 15.56° C | 81% | 1015.4 hPa | 0 mm | 0 m/s | - | - |
| 1778037132 | 16.11° C | 80% | 1015.3 hPa | 0 mm | 0 m/s | - | - |
| 1778036232 | 16.67° C | 78% | 1015.3 hPa | 0 mm | 0 m/s | - | - |
| 1778035331 | 17.22° C | 76% | 1015.1 hPa | 0 mm | 1.34 m/s, 353° | - | - |
| 1778034431 | 17.78° C | 75% | 1015.1 hPa | 0 mm | 0.45 m/s, 24° | - | - |
| 1778033532 | 18.89° C | 73% | 1015 hPa | 0 mm | 1.34 m/s, 31° | - | - |
| 1778032631 | 20° C | 68% | 1015 hPa | 0 mm | 0 m/s | - | - |
| 1778031731 | 20.56° C | 69% | 1014.8 hPa | 0 mm | 0.89 m/s, 49° | - | - |
| 1778030831 | 20° C | 70% | 1014.8 hPa | 0 mm | 0.45 m/s, 49° | - | - |
| 1778029931 | 20° C | 70% | 1014.8 hPa | 0 mm | 0.89 m/s, 22° | - | - |
| 1778029031 | 20° C | 69% | 1014.8 hPa | 0 mm | 0 m/s | - | - |
| 1778028132 | 20.56° C | 68% | 1014.8 hPa | 0 mm | 1.34 m/s, 36° | - | - |
| 1778027231 | 21.11° C | 68% | 1014.9 hPa | 0 mm | 0.45 m/s, 39° | - | - |
| 1778026331 | 20.56° C | 70% | 1014.9 hPa | 0 mm | 0.45 m/s, 57° | - | - |
* Rain latest hour (hover to see other rain measurements)
** Current wind speed in m/s (hover to see current wind gust speed)